createdAt,value
2023-04-26T00:02:01.076Z,4.34
2023-04-26T00:04:29.208Z,4.30
2023-04-26T00:06:57.408Z,4.31
2023-04-26T00:09:24.771Z,4.28
2023-04-26T00:11:51.990Z,4.28
2023-04-26T00:14:19.172Z,4.23
2023-04-26T00:16:46.450Z,4.25
2023-04-26T00:19:13.621Z,4.19
2023-04-26T00:21:40.912Z,4.20
2023-04-26T00:24:08.552Z,4.19
2023-04-26T00:26:35.954Z,4.16
2023-04-26T00:33:41.428Z,4.14
2023-04-26T00:36:08.859Z,4.02
2023-04-26T00:38:36.292Z,4.04
2023-04-26T00:41:03.546Z,3.98
2023-04-26T00:43:30.729Z,3.93
2023-04-26T00:45:58.368Z,3.89
2023-04-26T00:48:26.288Z,3.86
2023-04-26T00:50:53.507Z,3.85
2023-04-26T00:53:20.855Z,3.83
2023-04-26T00:55:49.149Z,3.76
2023-04-26T00:58:16.586Z,3.75
2023-04-26T01:00:44.190Z,3.74
2023-04-26T01:03:11.885Z,3.69
2023-04-26T01:05:39.234Z,3.68
2023-04-26T01:08:07.107Z,3.63
2023-04-26T01:10:35.060Z,3.64
2023-04-26T01:13:06.148Z,3.61
2023-04-26T01:15:33.631Z,3.58
2023-04-26T01:18:01.696Z,3.57
2023-04-26T01:20:29.035Z,3.56
2023-04-26T01:22:56.550Z,3.57
2023-04-26T01:25:23.844Z,3.57
2023-04-26T01:27:51.113Z,3.56
2023-04-26T01:30:18.490Z,3.54
2023-04-26T01:32:46.320Z,3.50
2023-04-26T01:35:13.552Z,3.44
2023-04-26T01:37:40.720Z,3.48
2023-04-26T01:40:08.619Z,3.46
2023-04-26T01:42:35.812Z,3.44
2023-04-26T01:45:03.721Z,3.40
2023-04-26T01:47:31.004Z,3.42
2023-04-26T01:49:58.273Z,3.39
2023-04-26T01:52:25.469Z,3.35
2023-04-26T01:54:52.758Z,3.30
2023-04-26T01:57:20.159Z,3.29
2023-04-26T01:59:47.446Z,3.28
2023-04-26T02:02:17.422Z,3.25
2023-04-26T02:04:44.687Z,3.20
2023-04-26T02:07:11.897Z,3.22
2023-04-26T02:09:39.071Z,3.19
2023-04-26T02:12:06.565Z,3.20
2023-04-26T02:14:33.824Z,3.16
2023-04-26T02:17:01.613Z,3.15
2023-04-26T02:19:29.603Z,3.10
2023-04-26T02:21:58.181Z,3.09
2023-04-26T02:24:25.949Z,3.07
2023-04-26T02:26:54.629Z,3.00
2023-04-26T02:29:29.759Z,3.04
2023-04-26T02:32:07.935Z,3.01
2023-04-26T02:34:35.913Z,3.01
2023-04-26T02:37:03.103Z,2.97
2023-04-26T02:39:30.512Z,2.95
2023-04-26T02:41:57.781Z,2.93
2023-04-26T02:44:25.346Z,2.89
2023-04-26T02:46:52.666Z,2.95
2023-04-26T02:49:20.226Z,2.88
2023-04-26T02:51:47.494Z,2.87
2023-04-26T02:54:14.726Z,2.87
2023-04-26T02:56:41.915Z,2.88
2023-04-26T02:59:09.329Z,2.86
2023-04-26T03:01:36.737Z,2.81
2023-04-26T03:04:04.453Z,2.82
2023-04-26T03:06:31.714Z,2.82
2023-04-26T03:08:59.060Z,2.84
2023-04-26T03:11:26.620Z,2.79
2023-04-26T03:13:53.929Z,2.78
2023-04-26T03:16:23.196Z,2.79
2023-04-26T03:18:50.834Z,2.75
2023-04-26T03:21:18.197Z,2.77
2023-04-26T03:23:45.966Z,2.75
2023-04-26T03:26:13.205Z,2.76
2023-04-26T03:28:41.650Z,2.73
2023-04-26T03:31:08.827Z,2.76
2023-04-26T03:33:36.014Z,2.67
2023-04-26T03:36:03.309Z,2.67
2023-04-26T03:38:30.576Z,2.67
2023-04-26T03:40:57.995Z,2.68
2023-04-26T03:43:25.144Z,2.65
2023-04-26T03:45:52.537Z,2.60
2023-04-26T03:48:19.835Z,2.64
2023-04-26T03:50:47.089Z,2.63
2023-04-26T03:53:14.234Z,2.62
2023-04-26T03:55:42.034Z,2.64
2023-04-26T03:58:09.624Z,2.65
2023-04-26T04:00:39.287Z,2.65
2023-04-26T04:03:07.216Z,2.64
2023-04-26T04:05:35.119Z,2.67
2023-04-26T04:08:02.357Z,2.66
2023-04-26T04:10:29.764Z,2.61
2023-04-26T04:12:57.063Z,2.63
2023-04-26T04:15:24.320Z,2.67
2023-04-26T04:17:51.579Z,2.61
2023-04-26T04:20:18.847Z,2.67
2023-04-26T04:22:46.285Z,2.70
2023-04-26T04:25:14.099Z,2.68
2023-04-26T04:27:43.524Z,2.70
2023-04-26T04:30:12.489Z,2.73
2023-04-26T04:32:40.399Z,2.75
2023-04-26T04:35:08.134Z,2.76
2023-04-26T04:37:35.538Z,2.79
2023-04-26T04:40:02.775Z,2.79
2023-04-26T04:42:30.011Z,2.82
2023-04-26T04:44:57.588Z,2.83
2023-04-26T04:47:24.957Z,2.92
2023-04-26T04:49:53.098Z,2.94
2023-04-26T04:52:21.865Z,2.95
2023-04-26T04:54:49.099Z,2.94
2023-04-26T04:57:16.956Z,2.98
2023-04-26T04:59:44.236Z,3.03
2023-04-26T05:02:11.507Z,3.06
2023-04-26T05:04:39.026Z,3.07
2023-04-26T05:07:06.790Z,3.05
2023-04-26T05:09:34.163Z,3.15
2023-04-26T05:12:01.431Z,3.18
2023-04-26T05:14:30.156Z,3.29
2023-04-26T05:16:57.730Z,3.35
2023-04-26T05:19:25.116Z,3.42
2023-04-26T05:21:52.899Z,3.45
2023-04-26T05:24:21.403Z,3.47
2023-04-26T05:26:48.634Z,3.45
2023-04-26T05:29:16.901Z,3.50
2023-04-26T05:31:44.284Z,3.50
2023-04-26T05:34:11.575Z,3.61
2023-04-26T05:36:38.897Z,3.63
2023-04-26T05:39:06.970Z,3.76
2023-04-26T05:41:34.170Z,3.80
2023-04-26T05:44:01.378Z,3.87
2023-04-26T05:46:28.662Z,3.90
2023-04-26T05:48:56.417Z,3.86
2023-04-26T05:51:24.184Z,3.90
2023-04-26T05:53:51.879Z,3.93
2023-04-26T05:56:19.212Z,3.91
2023-04-26T05:58:47.752Z,3.96
2023-04-26T06:01:15.022Z,3.91
2023-04-26T06:03:42.637Z,4.03
2023-04-26T06:06:10.936Z,4.10
2023-04-26T06:08:38.793Z,4.21
2023-04-26T06:11:06.042Z,4.25
2023-04-26T06:13:33.269Z,4.31
2023-04-26T06:16:00.649Z,4.39
2023-04-26T06:18:27.853Z,4.55
2023-04-26T06:20:55.050Z,4.60
2023-04-26T06:23:22.287Z,4.68
2023-04-26T06:25:49.552Z,4.71
2023-04-26T06:28:16.812Z,4.78
2023-04-26T06:30:44.067Z,4.96
2023-04-26T06:33:11.463Z,5.05
2023-04-26T06:35:41.947Z,4.97
2023-04-26T06:38:09.387Z,5.01
2023-04-26T06:40:39.489Z,5.19
2023-04-26T06:43:07.134Z,5.25
2023-04-26T06:45:34.554Z,5.26
2023-04-26T06:48:02.954Z,5.35
2023-04-26T06:50:30.266Z,5.47
2023-04-26T06:52:57.578Z,5.32
2023-04-26T06:55:25.015Z,5.36
2023-04-26T06:57:52.393Z,5.54
2023-04-26T07:00:19.979Z,5.48
2023-04-26T07:02:47.363Z,5.56
2023-04-26T07:05:15.470Z,5.64
2023-04-26T07:07:43.029Z,5.71
2023-04-26T07:10:10.538Z,5.79
2023-04-26T07:12:37.939Z,5.89
2023-04-26T07:15:06.736Z,6.08
2023-04-26T07:17:34.005Z,6.21
2023-04-26T07:20:01.225Z,6.37
2023-04-26T07:22:28.488Z,6.53
2023-04-26T07:24:55.934Z,6.63
2023-04-26T07:27:23.403Z,6.78
2023-04-26T07:29:54.003Z,6.84
2023-04-26T07:32:21.312Z,6.64
2023-04-26T07:34:48.585Z,6.68
2023-04-26T07:37:16.133Z,6.87
2023-04-26T07:39:43.364Z,6.97
2023-04-26T07:42:10.619Z,7.13
2023-04-26T07:44:37.825Z,7.28
2023-04-26T07:47:05.102Z,7.20
2023-04-26T07:49:32.358Z,7.17
2023-04-26T07:52:02.160Z,7.24
2023-04-26T07:54:29.453Z,7.37
2023-04-26T07:56:56.642Z,7.64
2023-04-26T07:59:24.144Z,7.60
2023-04-26T08:01:51.472Z,7.74
2023-04-26T08:04:30.966Z,7.93
2023-04-26T08:06:58.497Z,7.97
2023-04-26T08:09:25.830Z,7.80
2023-04-26T08:11:53.060Z,7.61
2023-04-26T08:14:20.242Z,7.59
2023-04-26T08:16:47.495Z,7.49
2023-04-26T08:19:14.838Z,7.22
2023-04-26T08:21:42.094Z,7.14
2023-04-26T08:24:09.327Z,7.13
2023-04-26T08:26:36.624Z,7.17
2023-04-26T08:29:03.882Z,7.46
2023-04-26T08:31:31.436Z,7.86
2023-04-26T08:33:58.756Z,8.24
2023-04-26T08:36:26.171Z,8.41
2023-04-26T08:38:53.443Z,8.40
2023-04-26T08:41:23.830Z,8.23
2023-04-26T08:43:51.624Z,8.41
2023-04-26T08:46:19.762Z,8.20
2023-04-26T08:48:50.185Z,7.96
2023-04-26T08:51:17.751Z,7.90
2023-04-26T08:53:45.430Z,8.27
2023-04-26T08:56:13.133Z,8.38
2023-04-26T08:58:40.872Z,8.63
2023-04-26T09:01:09.467Z,8.91
2023-04-26T09:03:37.077Z,8.90
2023-04-26T09:06:07.479Z,8.96
2023-04-26T09:08:36.865Z,9.05
2023-04-26T09:11:04.059Z,8.88
2023-04-26T09:13:31.399Z,8.43
2023-04-26T09:15:58.797Z,8.47
2023-04-26T09:18:26.579Z,8.45
2023-04-26T09:21:07.867Z,8.45
2023-04-26T09:23:35.474Z,8.57
2023-04-26T09:26:19.133Z,8.69
2023-04-26T09:28:47.468Z,8.83
2023-04-26T09:31:39.178Z,9.13
2023-04-26T09:34:06.697Z,9.07
2023-04-26T09:36:47.239Z,9.11
2023-04-26T09:39:14.844Z,9.00
2023-04-26T09:41:45.360Z,8.82
2023-04-26T09:44:25.619Z,8.66
2023-04-26T09:47:00.158Z,8.63
2023-04-26T09:49:50.355Z,8.80
2023-04-26T09:52:19.033Z,8.96
2023-04-26T09:54:53.852Z,9.00
2023-04-26T09:57:22.372Z,9.11
2023-04-26T09:59:53.500Z,9.49
2023-04-26T10:02:24.894Z,9.44
2023-04-26T10:04:54.368Z,9.04
2023-04-26T10:07:24.050Z,8.99
2023-04-26T10:09:51.417Z,8.85
2023-04-26T10:12:20.177Z,8.77
2023-04-26T10:14:48.079Z,8.55
2023-04-26T10:17:15.385Z,8.75
2023-04-26T10:19:46.918Z,9.12
2023-04-26T10:22:23.719Z,9.07
2023-04-26T10:24:53.225Z,9.26
2023-04-26T10:27:45.471Z,9.22
2023-04-26T10:30:23.125Z,8.98
2023-04-26T10:32:56.377Z,8.77
2023-04-26T10:35:24.988Z,8.56
2023-04-26T10:38:01.349Z,8.41
2023-04-26T10:40:32.354Z,8.30
2023-04-26T10:43:08.892Z,8.12
2023-04-26T10:45:36.876Z,7.98
2023-04-26T10:48:22.212Z,8.15
2023-04-26T10:51:01.806Z,8.12
2023-04-26T10:53:35.632Z,8.28
2023-04-26T10:56:03.006Z,8.48
2023-04-26T10:58:32.042Z,8.80
2023-04-26T11:01:14.587Z,9.44
2023-04-26T11:03:42.201Z,9.58
2023-04-26T11:06:15.675Z,9.70
2023-04-26T11:08:43.260Z,9.46
2023-04-26T11:11:12.124Z,9.30
2023-04-26T11:13:43.653Z,9.15
2023-04-26T11:16:13.028Z,9.15
2023-04-26T11:18:42.858Z,8.97
2023-04-26T11:21:10.842Z,8.86
2023-04-26T11:23:38.021Z,9.00
2023-04-26T11:26:08.176Z,9.22
2023-04-26T11:28:37.691Z,9.76
2023-04-26T11:31:07.193Z,9.67
2023-04-26T11:33:34.527Z,10.17
2023-04-26T11:36:04.181Z,10.21
2023-04-26T11:38:31.494Z,10.41
2023-04-26T11:40:59.517Z,10.28
2023-04-26T11:43:32.760Z,10.45
2023-04-26T11:46:02.975Z,10.11
2023-04-26T11:48:31.413Z,10.24
2023-04-26T11:51:00.990Z,9.96
2023-04-26T11:53:42.205Z,10.03
2023-04-26T11:56:20.919Z,9.80
2023-04-26T11:58:49.545Z,9.81
2023-04-26T12:01:23.884Z,10.04
2023-04-26T12:04:00.686Z,10.04
2023-04-26T12:06:44.490Z,9.90
2023-04-26T12:09:12.154Z,10.19
2023-04-26T12:11:40.113Z,10.87
2023-04-26T12:14:11.467Z,11.03
2023-04-26T12:16:38.966Z,11.57
2023-04-26T12:19:07.263Z,12.09
2023-04-26T12:21:44.393Z,12.71
2023-04-26T12:24:29.747Z,12.48
2023-04-26T12:26:56.968Z,11.72
2023-04-26T12:29:24.277Z,11.43
2023-04-26T12:31:51.691Z,10.73
2023-04-26T12:34:18.872Z,10.52
2023-04-26T12:36:46.553Z,10.22
2023-04-26T12:39:15.748Z,9.84
2023-04-26T12:41:43.635Z,9.93
2023-04-26T12:44:11.785Z,9.96
2023-04-26T12:46:39.151Z,10.09
2023-04-26T12:49:06.589Z,10.25
2023-04-26T12:51:33.893Z,10.32
2023-04-26T12:54:01.151Z,10.74
2023-04-26T12:56:29.543Z,11.28
2023-04-26T12:58:57.092Z,11.72
2023-04-26T13:01:24.335Z,12.62
2023-04-26T13:03:51.825Z,13.32
2023-04-26T13:06:19.142Z,13.82
2023-04-26T13:08:46.324Z,13.52
2023-04-26T13:11:13.514Z,14.24
2023-04-26T13:13:44.387Z,13.81
2023-04-26T13:16:12.765Z,13.70
2023-04-26T13:18:41.668Z,13.61
2023-04-26T13:21:09.878Z,12.67
2023-04-26T13:23:37.109Z,12.56
2023-04-26T13:26:04.436Z,12.90
2023-04-26T13:28:31.649Z,13.11
2023-04-26T13:30:59.622Z,13.60
2023-04-26T13:33:27.338Z,13.48
2023-04-26T13:35:54.682Z,12.56
2023-04-26T13:38:21.840Z,12.29
2023-04-26T13:40:48.998Z,12.02
2023-04-26T13:43:16.268Z,11.46
2023-04-26T13:45:44.144Z,11.05
2023-04-26T13:48:11.384Z,10.84
2023-04-26T13:50:38.559Z,10.63
2023-04-26T13:53:05.957Z,10.49
2023-04-26T13:55:33.101Z,10.30
2023-04-26T13:58:00.431Z,10.03
2023-04-26T14:00:27.780Z,9.94
2023-04-26T14:02:55.097Z,10.28
2023-04-26T14:05:23.704Z,11.49
2023-04-26T14:07:52.957Z,12.47
2023-04-26T14:10:21.521Z,11.98
2023-04-26T14:12:49.059Z,11.56
2023-04-26T14:15:16.333Z,10.83
2023-04-26T14:17:47.218Z,10.57
2023-04-26T14:20:14.829Z,10.54
2023-04-26T14:22:42.153Z,10.60
2023-04-26T14:25:09.790Z,11.29
2023-04-26T14:27:37.394Z,12.74
2023-04-26T14:30:05.626Z,15.37
2023-04-26T14:32:33.136Z,16.50
2023-04-26T14:35:00.574Z,15.56
2023-04-26T14:37:27.842Z,14.44
2023-04-26T14:39:55.390Z,13.40
2023-04-26T14:42:23.033Z,12.69
2023-04-26T14:49:10.608Z,12.93
2023-04-26T14:51:37.820Z,12.29
2023-04-26T14:54:05.490Z,11.26
2023-04-26T14:56:34.049Z,11.07
2023-04-26T14:59:02.120Z,10.94
2023-04-26T15:01:32.397Z,10.78
2023-04-26T15:04:01.249Z,10.46
2023-04-26T15:06:29.057Z,10.19
2023-04-26T15:08:56.318Z,9.93
2023-04-26T15:11:23.634Z,9.91
2023-04-26T15:13:50.880Z,9.89
2023-04-26T15:16:18.310Z,10.00
2023-04-26T15:18:45.674Z,10.22
2023-04-26T15:21:17.037Z,10.70
2023-04-26T15:23:44.306Z,10.80
2023-04-26T15:26:11.938Z,11.01
2023-04-26T15:28:39.264Z,11.06
2023-04-26T15:31:09.174Z,11.27
2023-04-26T15:33:36.674Z,11.21
2023-04-26T15:36:04.197Z,11.13
2023-04-26T15:38:31.470Z,11.26
2023-04-26T15:40:58.804Z,11.42
2023-04-26T15:43:26.687Z,11.26
2023-04-26T15:45:54.136Z,10.93
2023-04-26T15:48:21.822Z,10.53
2023-04-26T15:50:50.620Z,10.29
2023-04-26T15:53:18.039Z,10.09
2023-04-26T15:55:45.413Z,9.85
2023-04-26T15:58:12.962Z,9.74
2023-04-26T16:00:40.334Z,9.58
2023-04-26T16:03:08.048Z,9.63
2023-04-26T16:05:35.486Z,9.58
2023-04-26T16:08:03.927Z,9.46
2023-04-26T16:10:31.217Z,9.48
2023-04-26T16:12:58.829Z,9.41
2023-04-26T16:15:26.403Z,9.42
2023-04-26T16:17:53.649Z,9.34
2023-04-26T16:20:21.447Z,9.32
2023-04-26T16:22:49.916Z,9.31
2023-04-26T16:25:17.351Z,9.22
2023-04-26T16:27:44.690Z,9.19
2023-04-26T16:30:12.315Z,9.16
2023-04-26T16:32:39.678Z,9.10
2023-04-26T16:35:08.732Z,9.05
2023-04-26T16:37:36.028Z,9.08
2023-04-26T16:40:04.929Z,9.00
2023-04-26T16:42:32.134Z,9.09
2023-04-26T16:44:59.458Z,9.23
2023-04-26T16:47:26.733Z,9.34
2023-04-26T16:49:53.918Z,9.43
2023-04-26T16:52:21.391Z,9.43
2023-04-26T16:54:48.684Z,9.54
2023-04-26T16:57:16.575Z,9.37
2023-04-26T16:59:45.125Z,9.31
2023-04-26T17:02:14.055Z,9.20
2023-04-26T17:04:42.125Z,9.26
2023-04-26T17:07:10.851Z,9.28
2023-04-26T17:09:38.659Z,9.28
2023-04-26T17:12:07.672Z,9.35
2023-04-26T17:14:34.979Z,9.46
2023-04-26T17:17:02.158Z,9.51
2023-04-26T17:19:29.352Z,9.70
2023-04-26T17:21:56.699Z,9.76
2023-04-26T17:24:23.977Z,9.69
2023-04-26T17:26:51.676Z,9.63
2023-04-26T17:29:18.867Z,9.42
2023-04-26T17:31:46.284Z,9.45
2023-04-26T17:34:13.604Z,9.41
2023-04-26T17:36:41.293Z,9.29
2023-04-26T17:39:09.262Z,9.26
2023-04-26T17:41:38.238Z,9.20
2023-04-26T17:44:06.750Z,8.95
2023-04-26T17:46:34.283Z,8.94
2023-04-26T17:49:01.714Z,8.83
2023-04-26T17:51:29.589Z,8.79
2023-04-26T17:53:59.856Z,8.79
2023-04-26T17:56:27.307Z,8.73
2023-04-26T17:58:54.445Z,8.67
2023-04-26T18:01:21.960Z,8.56
2023-04-26T18:03:50.393Z,8.49
2023-04-26T18:06:19.387Z,8.43
2023-04-26T18:08:47.054Z,8.34
2023-04-26T18:11:19.214Z,8.27
2023-04-26T18:13:48.906Z,8.20
2023-04-26T18:16:17.175Z,8.21
2023-04-26T18:18:44.656Z,8.11
2023-04-26T18:21:12.219Z,8.07
2023-04-26T18:23:40.515Z,8.02
2023-04-26T18:26:07.933Z,7.98
2023-04-26T18:28:36.057Z,7.89
2023-04-26T18:31:03.249Z,7.82
2023-04-26T18:33:30.465Z,7.75
2023-04-26T18:35:57.654Z,7.70
2023-04-26T18:38:25.010Z,7.67
2023-04-26T18:40:53.411Z,7.64
2023-04-26T18:43:20.869Z,7.63
2023-04-26T18:45:49.235Z,7.60
2023-04-26T18:48:51.078Z,7.64
2023-04-26T18:51:18.268Z,7.64
2023-04-26T18:53:45.619Z,7.64
2023-04-26T18:56:12.834Z,7.63
2023-04-26T18:58:41.106Z,7.66
2023-04-26T19:01:08.489Z,7.66
2023-04-26T19:03:36.500Z,7.68
2023-04-26T19:06:09.110Z,7.69
2023-04-26T19:08:37.200Z,7.68
2023-04-26T19:11:04.426Z,7.67
2023-04-26T19:13:33.087Z,7.67
2023-04-26T19:16:01.978Z,7.63
2023-04-26T19:18:29.595Z,7.55
2023-04-26T19:20:56.887Z,7.52
2023-04-26T19:23:24.060Z,7.48
2023-04-26T19:25:51.260Z,7.46
2023-04-26T19:28:18.503Z,7.40
2023-04-26T19:30:45.749Z,7.32
2023-04-26T19:33:13.469Z,7.28
2023-04-26T19:35:41.082Z,7.25
2023-04-26T19:38:09.856Z,7.19
2023-04-26T19:40:38.703Z,7.18
2023-04-26T19:43:05.982Z,7.16
2023-04-26T19:45:33.168Z,7.14
2023-04-26T19:48:00.478Z,7.10
2023-04-26T19:50:27.810Z,7.08
2023-04-26T19:52:54.987Z,7.06
2023-04-26T19:55:22.350Z,7.04
2023-04-26T19:57:51.964Z,7.00
2023-04-26T20:00:19.229Z,7.04
2023-04-26T20:02:46.970Z,7.07
2023-04-26T20:05:14.238Z,7.04
2023-04-26T20:07:41.826Z,6.99
2023-04-26T20:10:09.707Z,6.95
2023-04-26T20:12:37.058Z,6.95
2023-04-26T20:15:04.753Z,6.93
2023-04-26T20:17:32.150Z,6.92
2023-04-26T20:19:59.512Z,6.85
2023-04-26T20:22:26.771Z,6.83
2023-04-26T20:24:53.966Z,6.83
2023-04-26T20:27:21.238Z,6.83
2023-04-26T20:29:48.582Z,6.83
2023-04-26T20:32:15.857Z,6.79
2023-04-26T20:34:43.068Z,6.80
2023-04-26T20:39:37.698Z,6.73
2023-04-26T20:42:05.038Z,6.72
2023-04-26T20:44:32.529Z,6.68
2023-04-26T20:46:59.810Z,6.71
2023-04-26T20:49:28.310Z,6.67
2023-04-26T20:51:55.494Z,6.64
2023-04-26T20:54:22.813Z,6.63
2023-04-26T20:56:50.035Z,6.63
2023-04-26T20:59:17.347Z,6.64
2023-04-26T21:02:09.945Z,6.65
2023-04-26T21:04:38.716Z,6.62
2023-04-26T21:07:06.275Z,6.60
2023-04-26T21:09:33.488Z,6.62
2023-04-26T21:12:00.647Z,6.60
2023-04-26T21:14:28.029Z,6.64
2023-04-26T21:16:55.463Z,6.63
2023-04-26T21:19:29.379Z,6.60
2023-04-26T21:22:46.717Z,6.59
2023-04-26T21:25:17.002Z,6.57
2023-04-26T21:27:44.216Z,6.55
2023-04-26T21:30:12.156Z,6.56
2023-04-26T21:32:42.292Z,6.58
2023-04-26T21:35:11.226Z,6.60
2023-04-26T21:37:38.499Z,6.61
2023-04-26T21:40:06.960Z,6.63
2023-04-26T21:42:34.266Z,6.63
2023-04-26T21:45:01.494Z,6.66
2023-04-26T21:47:28.856Z,6.67
2023-04-26T21:49:56.212Z,6.70
2023-04-26T21:52:23.454Z,6.76
2023-04-26T21:54:52.718Z,6.74
2023-04-26T21:57:24.033Z,6.75
2023-04-26T21:59:51.388Z,6.78
2023-04-26T22:02:19.028Z,6.78
2023-04-26T22:04:46.649Z,6.80
2023-04-26T22:07:13.974Z,6.80
2023-04-26T22:09:41.437Z,6.81
2023-04-26T22:12:08.601Z,6.81
2023-04-26T22:14:35.905Z,6.82
2023-04-26T22:17:04.006Z,6.80
2023-04-26T22:19:31.766Z,6.82
2023-04-26T22:21:59.057Z,6.81
2023-04-26T22:24:26.412Z,6.82
2023-04-26T22:26:53.710Z,6.85
2023-04-26T22:29:21.296Z,6.76
2023-04-26T22:31:48.700Z,6.76
2023-04-26T22:34:15.991Z,6.76
2023-04-26T22:36:43.279Z,6.73
2023-04-26T22:39:10.781Z,6.77
2023-04-26T22:41:38.249Z,6.82
2023-04-26T22:44:05.800Z,6.78
2023-04-26T22:46:33.023Z,6.76
2023-04-26T22:49:00.483Z,6.74
2023-04-26T22:51:28.777Z,6.72
2023-04-26T22:53:55.994Z,6.72
2023-04-26T22:56:23.279Z,6.65
2023-04-26T22:58:50.501Z,6.65
2023-04-26T23:01:17.865Z,6.62
2023-04-26T23:03:45.145Z,6.65
2023-04-26T23:06:12.433Z,6.65
2023-04-26T23:08:39.673Z,6.64
2023-04-26T23:11:08.631Z,6.65
2023-04-26T23:13:38.625Z,6.66
2023-04-26T23:16:06.298Z,6.62
2023-04-26T23:18:34.167Z,6.58
2023-04-26T23:21:01.397Z,6.60
2023-04-26T23:23:29.014Z,6.60
2023-04-26T23:25:57.689Z,6.58
2023-04-26T23:28:24.976Z,6.56
2023-04-26T23:30:52.210Z,6.57
2023-04-26T23:33:19.429Z,6.58
2023-04-26T23:35:46.584Z,6.58
2023-04-26T23:38:13.844Z,6.59
2023-04-26T23:40:41.575Z,6.58
2023-04-26T23:43:08.902Z,6.57
2023-04-26T23:45:36.123Z,6.59
2023-04-26T23:48:03.499Z,6.51
2023-04-26T23:50:31.446Z,6.52
2023-04-26T23:52:58.642Z,6.50
2023-04-26T23:55:25.911Z,6.46
2023-04-26T23:57:53.304Z,6.43
